TimeCDT,TemperatureF,Dew PointF,Humidity,Sea Level PressureIn,VisibilityMPH,Wind Direction,Wind SpeedMPH,Gust SpeedMPH,PrecipitationIn,Events,Conditions,WindDirDegrees,DateUTC
12:15 AM,48.4,42.8,81,29.95,10.0,North,5.8,-,N/A,,Mostly Cloudy,10,2013-05-05 05:15:00
12:35 AM,48.0,42.6,82,29.96,10.0,NNE,4.6,-,N/A,,Overcast,20,2013-05-05 05:35:00
12:55 AM,47.3,42.1,82,29.95,10.0,North,4.6,-,N/A,,Scattered Clouds,10,2013-05-05 05:55:00
1:15 AM,47.3,41.9,82,29.95,10.0,North,4.6,-,N/A,,Clear,10,2013-05-05 06:15:00
1:35 AM,46.4,41.4,83,29.95,10.0,North,5.8,-,N/A,,Clear,350,2013-05-05 06:35:00
1:55 AM,45.9,41.2,84,29.95,10.0,NNW,3.5,-,N/A,,Clear,340,2013-05-05 06:55:00
2:15 AM,45.1,41.0,85,29.94,10.0,NNW,5.8,-,N/A,,Clear,340,2013-05-05 07:15:00
2:35 AM,44.8,40.6,85,29.94,10.0,North,3.5,-,N/A,,Clear,350,2013-05-05 07:35:00
2:55 AM,44.8,41.0,87,29.93,10.0,North,4.6,-,N/A,,Clear,350,2013-05-05 07:55:00
3:15 AM,44.6,41.0,87,29.93,10.0,Calm,Calm,-,N/A,,Clear,0,2013-05-05 08:15:00
3:35 AM,44.6,41.0,87,29.93,10.0,NNW,4.6,-,N/A,,Clear,340,2013-05-05 08:35:00
3:55 AM,44.6,41.0,87,29.92,10.0,NNW,4.6,-,N/A,,Clear,330,2013-05-05 08:55:00
4:15 AM,44.6,41.0,87,29.93,10.0,North,3.5,-,N/A,,Clear,350,2013-05-05 09:15:00
4:35 AM,44.8,41.4,88,29.93,10.0,Calm,Calm,-,N/A,,Clear,0,2013-05-05 09:35:00
4:55 AM,45.0,41.5,88,29.93,10.0,NNW,4.6,-,N/A,,Clear,330,2013-05-05 09:55:00
5:15 AM,45.9,42.4,88,29.92,10.0,NW,3.5,-,N/A,,Clear,310,2013-05-05 10:15:00
5:35 AM,45.9,42.4,88,29.93,10.0,Calm,Calm,-,N/A,,Clear,0,2013-05-05 10:35:00
5:55 AM,46.4,43.0,88,29.93,10.0,NNW,3.5,-,N/A,,Mostly Cloudy,330,2013-05-05 10:55:00
6:15 AM,47.1,43.7,88,29.92,10.0,NW,3.5,-,N/A,,Overcast,320,2013-05-05 11:15:00
6:35 AM,47.8,44.2,87,29.93,10.0,WNW,5.8,-,N/A,,Overcast,300,2013-05-05 11:35:00
6:55 AM,47.8,43.9,86,29.93,10.0,WNW,5.8,-,N/A,,Overcast,300,2013-05-05 11:55:00
7:15 AM,48.2,43.9,85,29.93,10.0,NW,6.9,-,N/A,Rain,Light Rain,320,2013-05-05 12:15:00
7:35 AM,48.2,43.9,85,29.92,10.0,NW,6.9,-,N/A,,Overcast,310,2013-05-05 12:35:00
7:55 AM,48.4,43.9,84,29.91,10.0,NW,5.8,-,N/A,,Overcast,310,2013-05-05 12:55:00
8:15 AM,48.4,44.2,86,29.91,4.0,NW,6.9,-,N/A,,Unknown,310,2013-05-05 13:15:00
8:35 AM,49.1,45.3,87,29.91,5.0,NW,4.6,-,0.01,,Unknown,320,2013-05-05 13:35:00
8:55 AM,50.0,46.0,86,29.91,3.0,NW,5.8,-,0.03,,Unknown,320,2013-05-05 13:55:00
9:15 AM,50.0,46.0,86,29.91,7.0,NW,6.9,-,0.01,Rain,Rain,310,2013-05-05 14:15:00
9:35 AM,50.2,46.6,87,29.90,10.0,NW,8.1,-,0.02,Rain,Rain,310,2013-05-05 14:35:00
9:55 AM,50.2,46.6,87,29.89,10.0,WNW,8.1,-,0.02,Rain,Rain,300,2013-05-05 14:55:00
10:15 AM,51.1,47.5,87,29.90,10.0,NNW,8.1,-,N/A,Rain,Light Rain,330,2013-05-05 15:15:00
10:35 AM,51.1,47.5,87,29.91,10.0,Calm,Calm,-,0.01,,Light Drizzle,0,2013-05-05 15:35:00
10:55 AM,51.8,48.2,88,29.90,10.0,NW,5.8,-,0.01,,Light Drizzle,310,2013-05-05 15:55:00
11:15 AM,52.3,48.6,87,29.89,10.0,WNW,9.2,-,N/A,,Drizzle,290,2013-05-05 16:15:00
11:35 AM,52.2,48.4,87,29.91,10.0,NW,8.1,-,N/A,,Drizzle,320,2013-05-05 16:35:00
11:55 AM,52.9,48.9,86,29.90,10.0,West,4.6,-,N/A,,Overcast,280,2013-05-05 16:55:00
12:15 PM,52.7,48.7,86,29.90,10.0,WNW,4.6,-,N/A,,Overcast,300,2013-05-05 17:15:00
12:35 PM,54.5,50.2,85,29.88,10.0,West,4.6,-,N/A,,Overcast,280,2013-05-05 17:35:00
1:15 PM,56.7,50.9,81,29.88,10.0,West,6.9,-,N/A,,Overcast,270,2013-05-05 18:15:00
1:35 PM,56.8,50.9,80,29.87,10.0,West,6.9,-,N/A,,Overcast,260,2013-05-05 18:35:00
1:55 PM,57.2,51.1,80,29.87,10.0,West,5.8,-,N/A,,Overcast,260,2013-05-05 18:55:00
2:15 PM,57.9,51.4,79,29.88,10.0,West,5.8,-,N/A,,Overcast,270,2013-05-05 19:15:00
2:35 PM,57.0,50.5,79,29.88,10.0,WSW,5.8,-,N/A,,Overcast,240,2013-05-05 19:35:00
2:55 PM,57.2,51.1,80,29.88,10.0,West,5.8,-,N/A,,Overcast,270,2013-05-05 19:55:00
3:15 PM,57.2,51.1,80,29.87,10.0,WSW,6.9,-,N/A,,Overcast,250,2013-05-05 20:15:00
3:35 PM,58.1,52.2,81,29.87,10.0,West,6.9,-,N/A,,Overcast,280,2013-05-05 20:35:00
3:55 PM,58.1,52.2,81,29.86,10.0,WSW,6.9,-,N/A,,Overcast,250,2013-05-05 20:55:00
4:15 PM,58.3,52.2,80,29.86,10.0,SW,5.8,-,N/A,,Overcast,230,2013-05-05 21:15:00
4:35 PM,58.5,52.2,80,29.86,10.0,West,5.8,-,N/A,,Overcast,260,2013-05-05 21:35:00
4:55 PM,58.1,51.8,80,29.86,10.0,WSW,5.8,-,N/A,,Overcast,240,2013-05-05 21:55:00
5:15 PM,58.3,52.0,80,29.87,10.0,WSW,4.6,-,N/A,,Overcast,250,2013-05-05 22:15:00
5:35 PM,58.5,52.2,80,29.87,10.0,WSW,4.6,-,N/A,,Overcast,250,2013-05-05 22:35:00
5:55 PM,58.5,52.2,80,29.87,10.0,West,3.5,-,N/A,,Overcast,260,2013-05-05 22:55:00
6:15 PM,59.0,52.5,79,29.87,10.0,West,4.6,-,N/A,,Overcast,270,2013-05-05 23:15:00
6:35 PM,58.6,52.3,80,29.87,10.0,West,5.8,-,N/A,,Overcast,270,2013-05-05 23:35:00
6:55 PM,58.5,52.3,80,29.87,10.0,West,5.8,-,N/A,,Overcast,260,2013-05-05 23:55:00
7:15 PM,58.5,52.3,80,29.87,10.0,West,4.6,-,N/A,,Overcast,270,2013-05-06 00:15:00
7:35 PM,58.3,52.3,81,29.87,10.0,West,4.6,-,N/A,,Overcast,280,2013-05-06 00:35:00
7:55 PM,57.6,52.2,82,29.87,10.0,West,3.5,-,N/A,,Mostly Cloudy,280,2013-05-06 00:55:00
8:15 PM,57.9,52.7,83,29.88,10.0,West,3.5,-,N/A,,Overcast,280,2013-05-06 01:15:00
8:35 PM,57.4,52.7,84,29.87,10.0,West,5.8,-,N/A,,Mostly Cloudy,270,2013-05-06 01:35:00
8:55 PM,57.2,52.7,85,29.87,10.0,West,5.8,-,N/A,,Mostly Cloudy,280,2013-05-06 01:55:00
9:35 PM,56.8,52.7,86,29.88,10.0,WNW,4.6,-,N/A,,Overcast,300,2013-05-06 02:35:00
9:55 PM,57.0,52.9,86,29.89,10.0,WNW,4.6,-,N/A,,Overcast,290,2013-05-06 02:55:00
10:15 PM,57.2,53.2,87,29.89,10.0,WNW,3.5,-,N/A,,Overcast,290,2013-05-06 03:15:00
10:35 PM,57.2,53.6,88,29.88,10.0,WNW,4.6,-,N/A,,Overcast,300,2013-05-06 03:35:00
10:55 PM,57.4,53.8,88,29.87,10.0,WNW,8.1,-,N/A,,Overcast,290,2013-05-06 03:55:00
11:15 PM,57.6,54.0,88,29.87,10.0,NW,4.6,-,N/A,,Overcast,310,2013-05-06 04:15:00
11:35 PM,57.4,53.8,88,29.87,10.0,NW,4.6,-,N/A,,Overcast,320,2013-05-06 04:35:00
11:55 PM,57.2,53.8,88,29.86,10.0,NW,8.1,-,N/A,,Overcast,320,2013-05-06 04:55:00